Terminal Aerodrome Forecast
Issued by NWS Bismarck, ND

Home | Current Version | Previous Version | Text Only | Print | Product List | Glossary On
Versions: 1 2 3 4 5 6 7 8 9 10 11 12 13 14 15
533
FTUS43 KBIS 242332
TAFBIS
TAF
KBIS 242332Z 2500/2524 01010KT P6SM OVC012
     FM250400 02010KT P6SM OVC008
     FM251600 02014KT P6SM OVC010
     FM252100 01014G23KT P6SM OVC020=

USA.gov is the U.S. government's official web portal to all federal, state and local government web resources and services.